This is the latest recevied weather packets stored in our database for station/object 4S6DRJ-13. If no packets are shown the sender has not sent any weather packets the latest 10 day(s).
| Time | Temp. | Humidity | Pressure | Rain* | Wind** | Luminosity | Snow |
|---|---|---|---|---|---|---|---|
| 1787969980 | 28.89° C | 83% | 1010.4 hPa | 0 mm | 0.45 m/s, 225° | 356 W/m² | - |
| 1787969919 | 28.89° C | 83% | 1010.4 hPa | 0 mm | 0.89 m/s, 201° | 342 W/m² | - |
| 1787969858 | 28.89° C | 83% | 1010.3 hPa | 0 mm | 1.34 m/s, 257° | 352 W/m² | - |
| 1787969797 | 28.89° C | 83% | 1010.3 hPa | 0 mm | 1.79 m/s, 171° | 328 W/m² | - |
| 1787969736 | 28.33° C | 83% | 1010.3 hPa | 0 mm | 1.79 m/s, 247° | 354 W/m² | - |
| 1787969675 | 28.33° C | 84% | 1010.5 hPa | 0 mm | 0 m/s | 349 W/m² | - |
| 1787969614 | 28.33° C | 84% | 1010.3 hPa | 0 mm | 1.79 m/s, 251° | 361 W/m² | - |
| 1787969553 | 28.33° C | 84% | 1010.3 hPa | 0 mm | 0.45 m/s, 358° | 374 W/m² | - |
| 1787969492 | 28.33° C | 84% | 1010.3 hPa | 0 mm | 0.89 m/s, 297° | 359 W/m² | - |
| 1787969431 | 28.33° C | 84% | 1010.2 hPa | 0 mm | 1.34 m/s, 226° | 340 W/m² | - |
| 1787969370 | 28.33° C | 84% | 1010.3 hPa | 0 mm | 1.79 m/s, 295° | 317 W/m² | - |
| 1787969310 | 28.33° C | 84% | 1010.3 hPa | 0 mm | 0.89 m/s, 332° | 208 W/m² | - |
| 1787969248 | 28.33° C | 84% | 1010.3 hPa | 0 mm | 1.34 m/s, 272° | 138 W/m² | - |
| 1787969187 | 28.33° C | 84% | 1010.1 hPa | 0 mm | 1.79 m/s, 250° | 180 W/m² | - |
| 1787969126 | 28.33° C | 84% | 1010 hPa | 0 mm | 0.89 m/s, 162° | 155 W/m² | - |
| 1787969065 | 28.33° C | 84% | 1010.2 hPa | 0 mm | 0.89 m/s, 343° | 263 W/m² | - |
| 1787969004 | 28.33° C | 84% | 1010 hPa | 0 mm | 1.34 m/s, 213° | 193 W/m² | - |
| 1787968943 | 28.33° C | 85% | 1010.1 hPa | 0 mm | 0 m/s | 217 W/m² | - |
| 1787968882 | 28.33° C | 84% | 1010 hPa | 0 mm | 0.45 m/s, 275° | 293 W/m² | - |
| 1787968821 | 28.33° C | 84% | 1010 hPa | 0 mm | 1.79 m/s, 216° | 202 W/m² | - |
| 1787968760 | 28.33° C | 84% | 1010.1 hPa | 0 mm | 0.89 m/s, 312° | 174 W/m² | - |
| 1787968699 | 28.33° C | 85% | 1010.1 hPa | 0 mm | 1.79 m/s, 254° | 156 W/m² | - |
| 1787968638 | 28.33° C | 85% | 1010.1 hPa | 0 mm | 0.89 m/s, 258° | 150 W/m² | - |
| 1787968577 | 27.78° C | 85% | 1009.8 hPa | 0 mm | 1.79 m/s, 224° | 141 W/m² | - |
| 1787968516 | 27.78° C | 85% | 1009.9 hPa | 0 mm | 2.68 m/s, 223° | 183 W/m² | - |
* Rain latest hour (hover to see other rain measurements)
** Current wind speed in m/s (hover to see current wind gust speed)